createdAt,value
2017-09-16T00:02:08.113Z,95.10
2017-09-16T00:04:35.814Z,95.10
2017-09-16T00:07:04.269Z,95.50
2017-09-16T00:09:31.976Z,95.50
2017-09-16T00:11:59.644Z,95.90
2017-09-16T00:14:27.349Z,95.90
2017-09-16T00:16:55.035Z,95.70
2017-09-16T00:19:23.516Z,96.00
2017-09-16T00:21:51.946Z,95.80
2017-09-16T00:24:19.617Z,95.80
2017-09-16T00:26:47.323Z,95.50
2017-09-16T00:29:14.991Z,95.50
2017-09-16T00:31:42.709Z,95.60
2017-09-16T00:34:11.263Z,95.60
2017-09-16T00:36:38.985Z,95.80
2017-09-16T00:39:06.659Z,95.60
2017-09-16T00:41:34.367Z,95.60
2017-09-16T00:44:02.037Z,95.40
2017-09-16T00:46:30.537Z,95.00
2017-09-16T00:48:58.209Z,95.00
2017-09-16T00:51:25.985Z,95.50
2017-09-16T00:53:53.720Z,95.30
2017-09-16T00:56:21.458Z,95.40
2017-09-16T00:58:49.942Z,95.10
2017-09-16T01:01:18.428Z,94.70
2017-09-16T01:03:46.862Z,95.20
2017-09-16T01:06:14.628Z,95.10
2017-09-16T01:08:42.316Z,95.30
2017-09-16T01:11:10.830Z,95.40
2017-09-16T01:13:38.503Z,95.40
2017-09-16T01:16:06.220Z,95.50
2017-09-16T01:18:34.692Z,95.10
2017-09-16T01:21:03.255Z,95.20
2017-09-16T01:23:30.969Z,95.20
2017-09-16T01:25:58.728Z,95.60
2017-09-16T01:28:26.451Z,96.00
2017-09-16T01:30:54.991Z,96.30
2017-09-16T01:33:22.715Z,96.20
2017-09-16T01:35:50.462Z,96.30
2017-09-16T01:38:18.950Z,96.40
2017-09-16T01:40:47.456Z,96.40
2017-09-16T01:43:15.121Z,96.40
2017-09-16T01:45:42.879Z,96.60
2017-09-16T01:48:10.549Z,97.30
2017-09-16T01:50:38.257Z,96.70
2017-09-16T01:53:06.694Z,96.80
2017-09-16T01:55:34.402Z,96.80
2017-09-16T01:58:02.843Z,96.60
2017-09-16T02:00:30.556Z,96.60
2017-09-16T02:02:58.229Z,96.80
2017-09-16T02:05:25.948Z,96.70
2017-09-16T02:07:54.381Z,96.70
2017-09-16T02:10:22.060Z,96.70
2017-09-16T02:12:49.759Z,96.90
2017-09-16T02:15:18.189Z,97.10
2017-09-16T02:17:45.905Z,97.10
2017-09-16T02:20:13.595Z,97.10
2017-09-16T02:22:41.308Z,97.30
2017-09-16T02:25:09.746Z,97.00
2017-09-16T02:27:37.460Z,97.00
2017-09-16T02:30:05.120Z,97.20
2017-09-16T02:32:32.824Z,97.20
2017-09-16T02:35:00.492Z,97.10
2017-09-16T02:37:28.213Z,97.20
2017-09-16T02:39:55.880Z,97.00
2017-09-16T02:42:23.595Z,96.60
2017-09-16T02:44:51.259Z,96.90
2017-09-16T02:47:19.780Z,97.00
2017-09-16T02:49:47.449Z,97.00
2017-09-16T02:52:15.160Z,97.10
2017-09-16T02:54:43.591Z,97.00
2017-09-16T02:57:11.331Z,97.00
2017-09-16T02:59:39.041Z,97.20
2017-09-16T03:02:06.748Z,97.50
2017-09-16T03:04:34.411Z,97.60
2017-09-16T03:07:02.111Z,97.50
2017-09-16T03:09:29.776Z,97.50
2017-09-16T03:11:57.480Z,97.50
2017-09-16T03:14:25.152Z,97.70
2017-09-16T03:16:52.899Z,97.40
2017-09-16T03:19:20.570Z,97.40
2017-09-16T03:21:48.272Z,97.50
2017-09-16T03:24:15.939Z,97.50
2017-09-16T03:26:43.644Z,97.70
2017-09-16T03:29:11.317Z,97.50
2017-09-16T03:31:39.031Z,97.10
2017-09-16T03:34:06.720Z,96.80
2017-09-16T03:36:34.493Z,97.00
2017-09-16T03:39:02.159Z,96.90
2017-09-16T03:41:29.864Z,96.90
2017-09-16T03:43:57.523Z,96.80
2017-09-16T03:46:25.187Z,97.20
2017-09-16T03:48:52.939Z,97.60
2017-09-16T03:51:20.624Z,97.10
2017-09-16T03:53:49.147Z,97.60
2017-09-16T03:56:16.814Z,97.60
2017-09-16T03:58:44.524Z,97.60
2017-09-16T04:01:13.023Z,97.30
2017-09-16T04:03:40.726Z,97.00
2017-09-16T04:06:08.395Z,97.40
2017-09-16T04:08:36.103Z,97.60
2017-09-16T04:11:03.764Z,97.70
2017-09-16T04:13:31.471Z,97.70
2017-09-16T04:15:59.151Z,97.70
2017-09-16T04:18:27.627Z,97.20
2017-09-16T04:20:56.076Z,96.80
2017-09-16T04:23:23.816Z,96.80
2017-09-16T04:25:51.488Z,97.10
2017-09-16T04:28:19.195Z,97.30
2017-09-16T04:30:47.624Z,97.30
2017-09-16T04:33:15.332Z,97.30
2017-09-16T04:35:43.762Z,97.30
2017-09-16T04:38:11.513Z,97.30
2017-09-16T04:40:39.210Z,97.50
2017-09-16T04:43:06.923Z,97.70
2017-09-16T04:45:34.659Z,97.20
2017-09-16T04:48:03.153Z,97.10
2017-09-16T04:50:30.815Z,97.40
2017-09-16T04:52:58.525Z,96.80
2017-09-16T04:55:26.188Z,97.00
2017-09-16T04:57:53.906Z,97.00
2017-09-16T05:00:21.572Z,96.70
2017-09-16T05:02:49.280Z,96.40
2017-09-16T05:05:17.739Z,96.90
2017-09-16T05:07:45.449Z,96.80
2017-09-16T05:10:13.144Z,96.90
2017-09-16T05:12:40.839Z,96.60
2017-09-16T05:15:09.271Z,96.70
2017-09-16T05:17:36.971Z,96.60
2017-09-16T05:20:04.632Z,96.60
2017-09-16T05:22:33.076Z,96.50
2017-09-16T05:25:00.785Z,96.50
2017-09-16T05:27:29.208Z,96.90
2017-09-16T05:29:56.912Z,96.90
2017-09-16T05:32:25.335Z,97.00
2017-09-16T05:34:53.035Z,96.90
2017-09-16T05:37:20.696Z,96.70
2017-09-16T05:39:48.415Z,96.50
2017-09-16T05:42:16.080Z,96.80
2017-09-16T05:44:43.785Z,96.70
2017-09-16T05:47:12.215Z,96.80
2017-09-16T05:49:39.920Z,96.80
2017-09-16T05:52:08.351Z,96.80
2017-09-16T05:54:36.060Z,96.80
2017-09-16T05:57:04.497Z,96.90
2017-09-16T05:59:32.211Z,96.90
2017-09-16T06:02:00.649Z,97.30
2017-09-16T06:04:28.366Z,97.30
2017-09-16T06:06:56.024Z,96.80
2017-09-16T06:09:23.736Z,97.10
2017-09-16T06:11:51.412Z,97.20
2017-09-16T06:14:20.024Z,96.50
2017-09-16T06:16:47.699Z,96.60
2017-09-16T06:19:15.415Z,97.20
2017-09-16T06:21:44.002Z,96.90
2017-09-16T06:24:12.484Z,97.10
2017-09-16T06:26:40.918Z,97.30
2017-09-16T06:29:08.650Z,97.30
2017-09-16T06:31:36.323Z,97.30
2017-09-16T06:34:04.030Z,97.00
2017-09-16T06:36:32.479Z,97.00
2017-09-16T06:39:00.200Z,97.00
2017-09-16T06:41:27.877Z,97.00
2017-09-16T06:43:55.576Z,97.20
2017-09-16T06:46:23.244Z,97.30
2017-09-16T06:48:50.956Z,97.30
2017-09-16T06:51:18.619Z,97.40
2017-09-16T06:53:46.354Z,97.10
2017-09-16T06:56:14.034Z,96.60
2017-09-16T06:58:41.698Z,95.90
2017-09-16T07:01:09.410Z,95.80
2017-09-16T07:03:37.839Z,95.70
2017-09-16T07:06:05.613Z,95.70
2017-09-16T07:08:33.289Z,95.80
2017-09-16T07:11:01.000Z,95.90
2017-09-16T07:13:28.699Z,95.30
2017-09-16T07:15:56.444Z,95.00
2017-09-16T07:18:24.111Z,94.80
2017-09-16T07:20:51.815Z,94.50
2017-09-16T07:23:20.252Z,94.90
2017-09-16T07:25:47.960Z,94.90
2017-09-16T07:28:15.624Z,95.10
2017-09-16T07:30:43.328Z,95.30
2017-09-16T07:33:10.996Z,94.90
2017-09-16T07:35:38.711Z,94.90
2017-09-16T07:38:06.383Z,93.90
2017-09-16T07:40:34.104Z,93.90
2017-09-16T07:43:02.544Z,94.00
2017-09-16T07:45:30.256Z,94.00
2017-09-16T07:47:57.931Z,93.90
2017-09-16T07:50:25.649Z,93.60
2017-09-16T07:52:53.321Z,93.50
2017-09-16T07:55:21.805Z,94.10
2017-09-16T07:57:50.248Z,94.20
2017-09-16T08:00:18.905Z,94.20
2017-09-16T08:02:46.668Z,94.10
2017-09-16T08:05:14.396Z,94.30
2017-09-16T08:07:42.828Z,93.80
2017-09-16T08:10:10.551Z,93.80
2017-09-16T08:12:38.374Z,93.50
2017-09-16T08:15:06.107Z,93.70
2017-09-16T08:17:33.792Z,93.80
2017-09-16T08:20:01.509Z,92.80
2017-09-16T08:22:29.189Z,93.40
2017-09-16T08:24:56.920Z,92.30
2017-09-16T08:27:24.597Z,92.50
2017-09-16T08:29:52.331Z,92.30
2017-09-16T08:32:19.999Z,92.40
2017-09-16T08:34:47.678Z,91.50
2017-09-16T08:37:15.412Z,91.90
2017-09-16T08:39:43.092Z,92.70
2017-09-16T08:42:10.809Z,92.10
2017-09-16T08:44:39.255Z,91.90
2017-09-16T08:47:06.985Z,91.90
2017-09-16T08:49:34.660Z,92.40
2017-09-16T08:52:02.410Z,92.00
2017-09-16T08:54:30.118Z,91.60
2017-09-16T08:56:58.612Z,92.20
2017-09-16T08:59:27.044Z,91.80
2017-09-16T09:01:54.764Z,91.80
2017-09-16T09:04:22.438Z,91.70
2017-09-16T09:06:50.163Z,91.20
2017-09-16T09:09:18.600Z,91.00
2017-09-16T09:11:46.320Z,91.00
2017-09-16T09:14:13.997Z,91.60
2017-09-16T09:16:41.716Z,91.60
2017-09-16T09:19:10.158Z,92.70
2017-09-16T09:21:37.881Z,92.70
2017-09-16T09:24:05.555Z,92.30
2017-09-16T09:26:33.262Z,91.40
2017-09-16T09:29:00.932Z,91.00
2017-09-16T09:31:29.415Z,90.10
2017-09-16T09:33:57.855Z,90.20
2017-09-16T09:36:25.571Z,90.20
2017-09-16T09:38:53.284Z,89.40
2017-09-16T09:41:21.007Z,89.80
2017-09-16T09:43:48.682Z,88.20
2017-09-16T09:46:16.395Z,86.90
2017-09-16T09:48:45.647Z,85.20
2017-09-16T09:51:13.415Z,85.20
2017-09-16T09:53:41.089Z,85.40
2017-09-16T09:56:08.813Z,83.50
2017-09-16T09:58:37.251Z,84.60
2017-09-16T10:01:05.740Z,86.30
2017-09-16T10:03:34.193Z,86.80
2017-09-16T10:06:01.875Z,86.70
2017-09-16T10:08:30.364Z,84.40
2017-09-16T10:10:58.051Z,84.40
2017-09-16T10:13:25.766Z,86.00
2017-09-16T10:15:54.206Z,82.70
2017-09-16T10:18:21.932Z,82.60
2017-09-16T10:20:49.617Z,82.30
2017-09-16T10:23:17.332Z,81.80
2017-09-16T10:25:45.770Z,84.90
2017-09-16T10:28:13.485Z,84.90
2017-09-16T10:30:41.169Z,82.10
2017-09-16T10:33:08.893Z,82.20
2017-09-16T10:35:36.556Z,81.00
2017-09-16T10:38:04.275Z,80.00
2017-09-16T10:40:31.963Z,80.20
2017-09-16T10:43:00.449Z,77.70
2017-09-16T10:45:28.128Z,77.60
2017-09-16T10:47:55.843Z,79.30
2017-09-16T10:50:24.295Z,78.60
2017-09-16T10:52:52.005Z,78.50
2017-09-16T10:55:20.452Z,78.40
2017-09-16T10:57:48.165Z,78.30
2017-09-16T11:00:16.609Z,75.40
2017-09-16T11:02:45.083Z,73.70
2017-09-16T11:05:13.528Z,74.90
2017-09-16T11:07:41.263Z,74.90
2017-09-16T11:10:08.932Z,74.40
2017-09-16T11:12:36.644Z,74.30
2017-09-16T11:15:05.074Z,71.50
2017-09-16T11:17:32.781Z,71.30
2017-09-16T11:20:01.218Z,73.00
2017-09-16T11:22:28.937Z,72.80
2017-09-16T11:24:56.682Z,71.10
2017-09-16T11:27:25.163Z,70.00
2017-09-16T11:29:53.596Z,69.70
2017-09-16T11:32:21.311Z,69.70
2017-09-16T11:34:49.784Z,71.30
2017-09-16T11:37:18.254Z,69.70
2017-09-16T11:39:46.742Z,67.10
2017-09-16T11:42:15.183Z,68.50
2017-09-16T11:44:42.895Z,68.50
2017-09-16T11:47:10.568Z,67.80
2017-09-16T11:49:38.285Z,67.00
2017-09-16T11:52:06.731Z,66.00
2017-09-16T11:54:34.490Z,66.00
2017-09-16T11:57:02.156Z,67.60
2017-09-16T11:59:29.873Z,66.10
2017-09-16T12:01:57.536Z,63.00
2017-09-16T12:04:25.248Z,61.50
2017-09-16T12:06:52.976Z,61.00
2017-09-16T12:09:20.710Z,59.70
2017-09-16T12:11:48.384Z,61.10
2017-09-16T12:14:16.154Z,61.10
2017-09-16T12:16:43.821Z,58.60
2017-09-16T12:19:11.543Z,56.20
2017-09-16T12:21:39.972Z,58.00
2017-09-16T12:24:07.676Z,58.00
2017-09-16T12:26:36.107Z,55.30
2017-09-16T12:29:03.836Z,55.30
2017-09-16T12:31:31.516Z,55.00
2017-09-16T12:33:59.231Z,54.90
2017-09-16T12:36:27.669Z,57.40
2017-09-16T12:38:55.380Z,57.40
2017-09-16T12:41:23.048Z,56.00
2017-09-16T12:43:50.766Z,56.10
2017-09-16T12:46:18.437Z,56.30
2017-09-16T12:48:46.156Z,54.60
2017-09-16T12:51:13.831Z,55.70
2017-09-16T12:53:41.548Z,56.30
2017-09-16T12:56:09.228Z,56.90
2017-09-16T12:58:36.940Z,55.70
2017-09-16T13:01:05.379Z,55.30
2017-09-16T13:03:33.093Z,55.30
2017-09-16T13:06:01.528Z,52.90
2017-09-16T13:08:29.239Z,52.90
2017-09-16T13:10:56.954Z,50.00
2017-09-16T13:13:24.637Z,50.40
2017-09-16T13:15:53.123Z,53.80
2017-09-16T13:18:21.572Z,52.40
2017-09-16T13:20:49.287Z,52.40
2017-09-16T13:23:16.953Z,51.70
2017-09-16T13:25:44.776Z,50.10
2017-09-16T13:28:13.221Z,49.80
2017-09-16T13:30:40.955Z,49.90
2017-09-16T13:33:08.619Z,50.70
2017-09-16T13:35:36.347Z,49.50
2017-09-16T13:38:04.783Z,48.80
2017-09-16T13:40:32.500Z,48.90
2017-09-16T13:43:00.232Z,50.70
2017-09-16T13:45:28.732Z,52.80
2017-09-16T13:47:56.406Z,52.70
2017-09-16T13:50:24.139Z,49.70
2017-09-16T13:52:52.564Z,52.00
2017-09-16T13:55:20.275Z,52.00
2017-09-16T13:57:48.713Z,47.80
2017-09-16T14:00:16.420Z,47.80
2017-09-16T14:02:44.863Z,50.00
2017-09-16T14:05:12.617Z,50.60
2017-09-16T14:07:40.408Z,51.80
2017-09-16T14:10:08.936Z,49.70
2017-09-16T14:12:36.604Z,49.70
2017-09-16T14:15:04.311Z,50.30
2017-09-16T14:17:32.742Z,49.00
2017-09-16T14:20:00.458Z,49.00
2017-09-16T14:22:28.891Z,51.70
2017-09-16T14:24:56.610Z,51.40
2017-09-16T14:27:24.288Z,49.80
2017-09-16T14:29:52.044Z,52.40
2017-09-16T14:32:19.720Z,52.80
2017-09-16T14:34:47.435Z,62.80
2017-09-16T14:37:15.864Z,69.30
2017-09-16T14:39:43.576Z,69.30
2017-09-16T14:42:12.048Z,70.90
2017-09-16T14:44:40.484Z,72.60
2017-09-16T14:47:08.203Z,72.60
2017-09-16T14:49:35.877Z,72.00
2017-09-16T14:52:03.608Z,71.50
2017-09-16T14:54:32.044Z,71.40
2017-09-16T14:56:59.761Z,71.40
2017-09-16T14:59:27.433Z,71.70
2017-09-16T15:01:55.191Z,73.60
2017-09-16T15:04:22.871Z,74.50
2017-09-16T15:06:50.581Z,75.10
2017-09-16T15:09:19.013Z,78.00
2017-09-16T15:11:46.723Z,77.30
2017-09-16T15:14:15.167Z,77.60
2017-09-16T15:16:42.889Z,77.70
2017-09-16T15:19:10.603Z,77.30
2017-09-16T15:21:38.330Z,77.90
2017-09-16T15:24:06.004Z,77.80
2017-09-16T15:26:33.711Z,77.30
2017-09-16T15:29:01.385Z,78.30
2017-09-16T15:31:29.095Z,80.10
2017-09-16T15:33:56.803Z,80.40
2017-09-16T15:36:24.533Z,80.20
2017-09-16T15:38:52.973Z,79.20
2017-09-16T15:41:20.696Z,79.20
2017-09-16T15:43:48.360Z,78.30
2017-09-16T15:46:16.081Z,79.80
2017-09-16T15:48:43.751Z,77.40
2017-09-16T15:51:12.235Z,79.20
2017-09-16T15:53:40.670Z,79.30
2017-09-16T15:56:08.384Z,79.20
2017-09-16T15:58:36.825Z,79.40
2017-09-16T16:01:04.536Z,79.40
2017-09-16T16:03:32.207Z,79.30
2017-09-16T16:05:59.928Z,80.00
2017-09-16T16:08:28.366Z,80.90
2017-09-16T16:10:56.076Z,80.80
2017-09-16T16:13:24.552Z,80.70
2017-09-16T16:15:52.993Z,81.70
2017-09-16T16:18:20.725Z,81.60
2017-09-16T16:20:48.402Z,82.00
2017-09-16T16:23:16.125Z,81.70
2017-09-16T16:25:43.811Z,80.80
2017-09-16T16:28:11.524Z,80.60
2017-09-16T16:30:39.999Z,79.60
2017-09-16T16:33:08.473Z,80.30
2017-09-16T16:35:36.165Z,80.20
2017-09-16T16:38:03.905Z,80.40
2017-09-16T16:40:31.588Z,80.80
2017-09-16T16:42:59.300Z,80.50
2017-09-16T16:45:26.980Z,81.40
2017-09-16T16:47:55.457Z,81.40
2017-09-16T16:50:23.887Z,82.70
2017-09-16T16:52:51.602Z,82.00
2017-09-16T16:55:20.032Z,81.80
2017-09-16T16:57:47.768Z,81.80
2017-09-16T17:00:15.435Z,82.30
2017-09-16T17:02:43.151Z,82.70
2017-09-16T17:05:11.590Z,84.00
2017-09-16T17:07:39.313Z,83.10
2017-09-16T17:10:07.011Z,83.90
2017-09-16T17:12:34.737Z,83.70
2017-09-16T17:15:02.407Z,82.90
2017-09-16T17:17:30.124Z,83.10
2017-09-16T17:19:57.792Z,83.80
2017-09-16T17:22:26.280Z,83.40
2017-09-16T17:24:53.956Z,83.40
2017-09-16T17:27:21.672Z,82.60
2017-09-16T17:29:49.348Z,83.10
2017-09-16T17:32:17.825Z,83.50
2017-09-16T17:34:46.259Z,83.80
2017-09-16T17:37:13.975Z,83.70
2017-09-16T17:39:42.456Z,84.90
2017-09-16T17:42:10.133Z,84.80
2017-09-16T17:44:37.843Z,84.70
2017-09-16T17:47:05.515Z,85.30
2017-09-16T17:49:33.227Z,85.90
2017-09-16T17:52:01.676Z,86.40
2017-09-16T17:54:30.169Z,86.50
2017-09-16T17:56:57.841Z,86.50
2017-09-16T17:59:25.556Z,87.10
2017-09-16T18:01:53.992Z,87.50
2017-09-16T18:04:21.705Z,87.50
2017-09-16T18:06:50.145Z,87.90
2017-09-16T18:09:17.860Z,87.90
2017-09-16T18:11:45.532Z,88.70
2017-09-16T18:14:13.246Z,88.50
2017-09-16T18:16:41.704Z,89.50
2017-09-16T18:19:09.430Z,89.50
2017-09-16T18:21:37.118Z,90.20
2017-09-16T18:24:04.827Z,90.70
2017-09-16T18:26:33.256Z,92.00
2017-09-16T18:29:00.959Z,92.00
2017-09-16T18:31:29.388Z,91.70
2017-09-16T18:33:57.095Z,91.60
2017-09-16T18:36:25.531Z,92.50
2017-09-16T18:38:53.236Z,92.50
2017-09-16T18:41:21.676Z,92.80
2017-09-16T18:43:49.385Z,92.80
2017-09-16T18:46:17.056Z,92.30
2017-09-16T18:48:44.768Z,92.00
2017-09-16T18:51:12.446Z,91.70
2017-09-16T18:53:40.924Z,91.70
2017-09-16T18:56:09.362Z,91.60
2017-09-16T18:58:37.072Z,91.50
2017-09-16T19:01:05.500Z,92.60
2017-09-16T19:03:33.229Z,92.60
2017-09-16T19:06:00.900Z,92.70
2017-09-16T19:08:28.614Z,92.60
2017-09-16T19:10:57.052Z,93.10
2017-09-16T19:13:24.783Z,93.10
2017-09-16T19:15:52.466Z,93.00
2017-09-16T19:18:20.138Z,92.60
2017-09-16T19:20:47.844Z,92.40
2017-09-16T19:23:16.298Z,92.20
2017-09-16T19:25:44.012Z,92.20
2017-09-16T19:28:11.679Z,92.50
2017-09-16T19:30:39.394Z,92.50
2017-09-16T19:33:07.836Z,92.90
2017-09-16T19:35:35.550Z,92.90
2017-09-16T19:38:03.245Z,92.70
2017-09-16T19:40:30.966Z,92.60
2017-09-16T19:42:59.428Z,92.70
2017-09-16T19:45:27.163Z,92.70
2017-09-16T19:47:54.832Z,92.40
2017-09-16T19:50:22.543Z,92.30
2017-09-16T19:52:50.217Z,92.50
2017-09-16T19:55:17.935Z,92.40
2017-09-16T19:57:46.380Z,92.20
2017-09-16T20:00:14.133Z,92.20
2017-09-16T20:02:41.807Z,92.40
2017-09-16T20:05:09.528Z,92.40
2017-09-16T20:07:37.196Z,92.30
2017-09-16T20:10:05.675Z,92.70
2017-09-16T20:12:33.349Z,92.70
2017-09-16T20:15:01.060Z,93.20
2017-09-16T20:17:30.513Z,93.20
2017-09-16T20:19:58.226Z,93.20
2017-09-16T20:22:25.896Z,93.10
2017-09-16T20:24:53.607Z,93.50
2017-09-16T20:27:21.311Z,93.40
2017-09-16T20:29:49.029Z,93.60
2017-09-16T20:32:16.705Z,93.60
2017-09-16T20:34:45.185Z,93.50
2017-09-16T20:37:13.627Z,93.50
2017-09-16T20:39:41.343Z,93.50
2017-09-16T20:42:09.011Z,93.40
2017-09-16T20:44:36.723Z,93.50
2017-09-16T20:47:04.403Z,93.60
2017-09-16T20:49:32.884Z,93.50
2017-09-16T20:52:01.314Z,93.80
2017-09-16T20:54:29.024Z,93.80
2017-09-16T20:56:57.460Z,93.20
2017-09-16T20:59:25.192Z,93.20
2017-09-16T21:01:52.864Z,93.20
2017-09-16T21:04:20.535Z,93.30
2017-09-16T21:06:48.244Z,93.60
2017-09-16T21:09:16.679Z,93.60
2017-09-16T21:11:44.400Z,93.60
2017-09-16T21:14:12.076Z,93.80
2017-09-16T21:16:39.779Z,94.20
2017-09-16T21:19:07.448Z,93.70
2017-09-16T21:21:35.927Z,93.70
2017-09-16T21:24:04.360Z,93.70
2017-09-16T21:26:32.087Z,93.70
2017-09-16T21:28:59.749Z,93.80
2017-09-16T21:31:27.461Z,94.00
2017-09-16T21:33:55.128Z,93.80
2017-09-16T21:36:22.851Z,93.90
2017-09-16T21:38:50.511Z,93.90
2017-09-16T21:41:18.225Z,94.10
2017-09-16T21:43:46.654Z,94.30
2017-09-16T21:46:14.372Z,94.30
2017-09-16T21:48:42.808Z,93.80
2017-09-16T21:51:10.535Z,93.70
2017-09-16T21:53:38.217Z,93.60
2017-09-16T21:56:05.927Z,93.90
2017-09-16T21:58:34.377Z,94.10
2017-09-16T22:01:02.087Z,94.10
2017-09-16T22:03:29.804Z,93.80
2017-09-16T22:05:57.508Z,93.90
2017-09-16T22:08:25.181Z,94.00
2017-09-16T22:10:52.932Z,94.90
2017-09-16T22:13:20.600Z,94.60
2017-09-16T22:15:48.309Z,94.40
2017-09-16T22:18:15.989Z,93.90
2017-09-16T22:20:44.469Z,93.50
2017-09-16T22:23:12.905Z,93.80
2017-09-16T22:25:40.616Z,93.70
2017-09-16T22:28:08.297Z,93.60
2017-09-16T22:30:36.016Z,93.70
2017-09-16T22:33:04.457Z,94.70
2017-09-16T22:35:32.169Z,94.70
2017-09-16T22:38:00.588Z,95.00
2017-09-16T22:40:28.340Z,94.90
2017-09-16T22:42:56.003Z,95.20
2017-09-16T22:45:23.713Z,94.60
2017-09-16T22:47:52.143Z,93.20
2017-09-16T22:50:19.815Z,93.20
2017-09-16T22:52:47.522Z,94.30
2017-09-16T22:55:15.951Z,94.30
2017-09-16T22:57:43.659Z,94.30
2017-09-16T23:00:12.115Z,93.10
2017-09-16T23:02:39.888Z,93.10
2017-09-16T23:05:08.320Z,93.50
2017-09-16T23:07:36.031Z,93.50
2017-09-16T23:10:04.466Z,93.70
2017-09-16T23:12:32.180Z,93.70
2017-09-16T23:14:59.844Z,94.20
2017-09-16T23:17:27.556Z,94.10
2017-09-16T23:19:55.220Z,94.30
2017-09-16T23:22:22.931Z,94.10
2017-09-16T23:24:50.616Z,93.90
2017-09-16T23:27:19.195Z,94.10
2017-09-16T23:29:46.856Z,94.60
2017-09-16T23:32:14.559Z,95.00
2017-09-16T23:34:43.002Z,95.10
2017-09-16T23:37:10.708Z,95.10
2017-09-16T23:39:39.144Z,94.30
2017-09-16T23:42:06.855Z,94.30
2017-09-16T23:44:34.512Z,94.00
2017-09-16T23:47:02.228Z,94.20
2017-09-16T23:49:29.896Z,94.50
2017-09-16T23:51:57.600Z,94.90
2017-09-16T23:54:25.268Z,94.50
2017-09-16T23:56:52.972Z,94.40
2017-09-16T23:59:20.639Z,94.10
